Ashland, ME (04737)

7:51 AM EST on February 10, 2016 (GMT -0500)
Northern Maine Regional At Presque Isle | | Change Station
CLOSE
Current Station
Airport
Location: Presque Isle,
Elevation: 479 ft
Nearby Weather Stations

Elev 479 ft 46.69 °N, 68.04 °W | Updated 55 minutes ago

Mostly Cloudy
Mostly Cloudy
0 °F
Feels Like 0 °F
N
0
Wind Variable Wind from North

Today
High -- | Low -- °F
--% Chance of Precip.
Yesterday
High -- | Low -- °F
Precip. -- in
Pressure 29.68 in
Visibility 8.0 miles
Clouds Overcast 1100 ft
Dew Point -3 °F
Humidity 88%
Rainfall 0.00 in
Snow Depth Not available.
6:50 AM 4:54 PM
Waxing Crescent, 5% visible
METAR KPQI 101156Z AUTO 00000KT 8SM -SN OVC011 M18/M19 A2954 RMK AO2 SNB24 SLP050 P0000 60000 T11781194 11100 21211 51004 FZRANO
Pressure 29.68 in
Visibility 8.0 miles
Clouds Overcast 1100 ft
Dew Point -3 °F
Humidity 88%
Rainfall 0.00 in
Snow Depth Not available.
6:50 AM 4:54 PM
Waxing Crescent, 5% visible
METAR KPQI 101156Z AUTO 00000KT 8SM -SN OVC011 M18/M19 A2954 RMK AO2 SNB24 SLP050 P0000 60000 T11781194 11100 21211 51004 FZRANO

10-Day Weather Forecast

Almanac

Astronomy

Feb. 10, 2016 Rise Set
Actual Time
Civil Twilight
Nautical Twilight
Astronomical Twilight
Moon
Length of Visible Light
Length of Day
Tomorrow will be .
, % of the Moon is Illuminated

Today's Extremes

State Highs State Lows

Community

WunderPhotos

Upload Photos

1,891,837 photos uploaded!

WunderBlog® & News

Nearby

Air Quality

  Air Quality AQ Index Pollutant
Not available.

Snow Depth

Station Depth Elevation

Earthquake Activity

City Distance Mag. Time & Date
Minimum magnitude displayed is 2.5.

Coastal Water Temperatures

Place Temperature

Stations

Nearby Weather Stations

Station Location Temp. Windchill Dew Point Humidity Wind Precip. Elev Updated Type
                   

Watches & Warnings

There are currently no watches in effect.